createdAt,value
2023-04-02T00:02:00.324Z,28
2023-04-02T00:04:31.223Z,28
2023-04-02T00:07:01.078Z,28
2023-04-02T00:09:31.697Z,25
2023-04-02T00:12:01.903Z,28
2023-04-02T00:14:33.146Z,28
2023-04-02T00:17:04.101Z,28
2023-04-02T00:19:34.706Z,27
2023-04-02T00:22:05.836Z,24
2023-04-02T00:24:36.188Z,24
2023-04-02T00:27:06.276Z,28
2023-04-02T00:29:37.478Z,27
2023-04-02T00:32:08.239Z,28
2023-04-02T00:34:40.730Z,26
2023-04-02T00:37:10.739Z,28
2023-04-02T00:39:41.434Z,25
2023-04-02T00:42:15.910Z,28
2023-04-02T00:44:46.607Z,28
2023-04-02T00:47:17.498Z,29
2023-04-02T00:49:48.489Z,28
2023-04-02T00:52:18.492Z,28
2023-04-02T00:54:48.976Z,28
2023-04-02T00:57:19.627Z,28
2023-04-02T00:59:53.772Z,28
2023-04-02T01:02:24.194Z,28
2023-04-02T01:04:54.301Z,28
2023-04-02T01:07:24.225Z,32
2023-04-02T01:09:54.331Z,28
2023-04-02T01:12:24.496Z,28
2023-04-02T01:14:54.845Z,28
2023-04-02T01:17:24.628Z,31
2023-04-02T01:19:55.248Z,28
2023-04-02T01:22:25.482Z,28
2023-04-02T01:24:56.088Z,29
2023-04-02T01:27:26.331Z,28
2023-04-02T01:29:56.803Z,28
2023-04-02T01:32:27.992Z,24
2023-04-02T01:34:58.555Z,26
2023-04-02T01:37:28.864Z,24
2023-04-02T01:39:58.878Z,24
2023-04-02T01:42:29.131Z,24
2023-04-02T01:44:59.483Z,27
2023-04-02T01:47:29.568Z,24
2023-04-02T01:49:59.899Z,27
2023-04-02T01:52:30.537Z,24
2023-04-02T01:55:01.863Z,24
2023-04-02T01:57:32.191Z,24
2023-04-02T02:00:02.870Z,24
2023-04-02T02:02:33.238Z,28
2023-04-02T02:05:04.258Z,27
2023-04-02T02:07:34.622Z,24
2023-04-02T02:10:04.461Z,24
2023-04-02T02:12:35.848Z,24
2023-04-02T02:15:06.053Z,24
2023-04-02T02:17:36.501Z,24
2023-04-02T02:20:06.552Z,22
2023-04-02T02:22:36.940Z,24
2023-04-02T02:25:07.581Z,24
2023-04-02T02:27:38.726Z,21
2023-04-02T02:30:09.287Z,24
2023-04-02T02:32:40.100Z,24
2023-04-02T02:35:10.263Z,24
2023-04-02T02:37:41.186Z,24
2023-04-02T02:40:11.185Z,25
2023-04-02T02:42:42.016Z,28
2023-04-02T02:45:16.430Z,28
2023-04-02T02:47:47.624Z,28
2023-04-02T02:50:16.448Z,28
2023-04-02T02:52:46.774Z,28
2023-04-02T02:55:17.024Z,28
2023-04-02T02:57:47.646Z,28
2023-04-02T03:00:18.324Z,28
2023-04-02T03:02:49.515Z,28
2023-04-02T03:07:56.269Z,24
2023-04-02T03:10:26.290Z,25
2023-04-02T03:12:56.487Z,20
2023-04-02T03:15:27.154Z,24
2023-04-02T03:17:57.532Z,24
2023-04-02T03:20:28.252Z,24
2023-04-02T03:22:58.706Z,24
2023-04-02T03:25:29.234Z,24
2023-04-02T03:28:01.571Z,24
2023-04-02T03:30:32.501Z,24
2023-04-02T03:33:02.845Z,22
2023-04-02T03:35:33.437Z,24
2023-04-02T03:38:03.967Z,22
2023-04-02T03:40:34.559Z,24
2023-04-02T03:43:07.125Z,24
2023-04-02T03:45:38.494Z,22
2023-04-02T03:48:09.235Z,20
2023-04-02T03:50:39.293Z,24
2023-04-02T03:53:09.643Z,23
2023-04-02T03:55:40.257Z,20
2023-04-02T03:58:10.857Z,20
2023-04-02T04:00:47.312Z,23
2023-04-02T04:03:18.076Z,20
2023-04-02T04:05:49.902Z,24
2023-04-02T04:08:20.109Z,22
2023-04-02T04:10:51.861Z,22
2023-04-02T04:13:22.153Z,18
2023-04-02T04:15:52.744Z,20
2023-04-02T04:18:24.320Z,20
2023-04-02T04:20:54.705Z,20
2023-04-02T04:23:25.148Z,20
2023-04-02T04:25:55.667Z,20
2023-04-02T04:28:26.054Z,16
2023-04-02T04:30:56.747Z,16
2023-04-02T04:33:26.923Z,20
2023-04-02T04:35:57.691Z,18
2023-04-02T04:38:28.075Z,20
2023-04-02T04:40:58.330Z,20
2023-04-02T04:43:30.851Z,20
2023-04-02T04:46:01.134Z,23
2023-04-02T04:48:33.234Z,24
2023-04-02T04:51:03.071Z,24
2023-04-02T04:53:35.640Z,24
2023-04-02T04:56:18.366Z,28
2023-04-02T04:58:38.916Z,24
2023-04-02T05:01:08.946Z,28
2023-04-02T05:03:39.751Z,24
2023-04-02T05:06:09.831Z,27
2023-04-02T05:08:40.505Z,21
2023-04-02T05:11:11.355Z,19
2023-04-02T05:13:41.719Z,17
2023-04-02T05:16:12.229Z,16
2023-04-02T05:18:43.127Z,19
2023-04-02T05:21:13.602Z,17
2023-04-02T05:23:43.988Z,17
2023-04-02T05:26:14.847Z,16
2023-04-02T05:28:44.914Z,16
2023-04-02T05:31:15.488Z,16
2023-04-02T05:33:46.009Z,16
2023-04-02T05:36:16.128Z,19
2023-04-02T05:38:46.732Z,20
2023-04-02T05:41:17.155Z,24
2023-04-02T05:43:47.364Z,24
2023-04-02T05:46:17.639Z,24
2023-04-02T05:48:48.636Z,27
2023-04-02T05:51:19.150Z,28
2023-04-02T05:53:50.340Z,28
2023-04-02T05:56:20.889Z,28
2023-04-02T05:58:51.398Z,32
2023-04-02T06:01:21.425Z,32
2023-04-02T06:03:52.386Z,28
2023-04-02T06:06:22.443Z,28
2023-04-02T06:08:52.612Z,30
2023-04-02T06:11:24.774Z,29
2023-04-02T06:13:55.156Z,28
2023-04-02T06:16:25.981Z,28
2023-04-02T06:18:58.973Z,29
2023-04-02T06:21:29.433Z,32
2023-04-02T06:24:00.004Z,29
2023-04-02T06:26:32.030Z,32
2023-04-02T06:29:02.438Z,32
2023-04-02T06:31:33.472Z,32
2023-04-02T06:34:03.609Z,24
2023-04-02T06:36:34.364Z,28
2023-04-02T06:39:05.245Z,24
2023-04-02T06:41:35.454Z,28
2023-04-02T06:44:08.355Z,28
2023-04-02T06:46:40.058Z,32
2023-04-02T06:49:10.603Z,28
2023-04-02T06:51:41.120Z,24
2023-04-02T06:54:11.229Z,20
2023-04-02T06:56:44.315Z,20
2023-04-02T06:59:15.018Z,13
2023-04-02T07:01:45.711Z,16
2023-04-02T07:04:16.573Z,12
2023-04-02T07:06:47.602Z,16
2023-04-02T07:11:53.066Z,8
2023-04-02T07:14:23.390Z,8
2023-04-02T07:16:55.490Z,8
2023-04-02T07:19:25.699Z,8
2023-04-02T07:21:56.160Z,8
2023-04-02T07:24:26.472Z,8
2023-04-02T07:26:56.635Z,4
2023-04-02T07:29:27.546Z,17
2023-04-02T07:31:58.125Z,15
2023-04-02T07:34:31.585Z,8
2023-04-02T07:37:04.741Z,4
2023-04-02T07:39:39.518Z,7
2023-04-02T07:42:08.318Z,4
2023-04-02T07:44:37.118Z,6
2023-04-02T07:47:07.643Z,4
2023-04-02T07:49:37.895Z,12
2023-04-02T07:52:08.163Z,8
2023-04-02T07:54:38.792Z,6
2023-04-02T07:57:09.528Z,4
2023-04-02T07:59:40.042Z,8
2023-04-02T08:02:10.218Z,8
2023-04-02T08:04:40.588Z,8
2023-04-02T08:07:11.685Z,8
2023-04-02T08:09:42.321Z,6
2023-04-02T08:12:12.410Z,4
2023-04-02T08:14:43.248Z,8
2023-04-02T08:17:14.029Z,8
2023-04-02T08:19:54.565Z,4
2023-04-02T08:22:15.449Z,4
2023-04-02T08:24:45.798Z,11
2023-04-02T08:27:15.916Z,16
2023-04-02T08:29:46.113Z,16
2023-04-02T08:32:16.486Z,12
2023-04-02T08:34:46.593Z,8
2023-04-02T08:37:18.151Z,12
2023-04-02T08:39:48.172Z,12
2023-04-02T08:42:18.710Z,15
2023-04-02T08:44:48.998Z,16
2023-04-02T08:47:19.236Z,12
2023-04-02T08:49:47.778Z,20
2023-04-02T08:52:17.916Z,16
2023-04-02T08:54:48.165Z,16
2023-04-02T08:57:18.756Z,18
2023-04-02T08:59:49.079Z,11
2023-04-02T09:02:19.729Z,7
2023-04-02T09:04:50.410Z,12
2023-04-02T09:07:21.084Z,14
2023-04-02T09:09:51.819Z,12
2023-04-02T09:12:22.148Z,9
2023-04-02T09:14:52.678Z,8
2023-04-02T09:17:21.746Z,8
2023-04-02T09:19:52.222Z,8
2023-04-02T09:22:23.037Z,10
2023-04-02T09:24:53.380Z,4
2023-04-02T09:27:25.780Z,16
2023-04-02T09:29:56.292Z,8
2023-04-02T09:32:26.467Z,8
2023-04-02T09:34:57.298Z,4
2023-04-02T09:37:28.448Z,8
2023-04-02T09:39:58.824Z,8
2023-04-02T09:42:29.058Z,8
2023-04-02T09:44:59.612Z,11
2023-04-02T09:47:29.716Z,4
2023-04-02T09:50:00.410Z,8
2023-04-02T09:52:31.253Z,4
2023-04-02T09:55:01.571Z,4
2023-04-02T09:57:32.578Z,12
2023-04-02T10:00:02.869Z,8
2023-04-02T10:02:33.248Z,8
2023-04-02T10:05:04.143Z,8
2023-04-02T10:07:32.558Z,8
2023-04-02T10:10:02.552Z,8
2023-04-02T10:12:32.720Z,8
2023-04-02T10:15:03.141Z,7
2023-04-02T10:17:33.055Z,5
2023-04-02T10:20:03.107Z,8
2023-04-02T10:22:33.365Z,8
2023-04-02T10:25:03.581Z,12
2023-04-02T10:27:33.737Z,7
2023-04-02T10:30:04.579Z,8
2023-04-02T10:32:34.519Z,4
2023-04-02T10:35:04.666Z,5
2023-04-02T10:37:34.854Z,8
2023-04-02T10:40:05.362Z,8
2023-04-02T10:42:35.483Z,12
2023-04-02T10:45:06.202Z,8
2023-04-02T10:47:36.730Z,4
2023-04-02T10:50:07.227Z,7
2023-04-02T10:52:37.729Z,4
2023-04-02T10:55:06.752Z,8
2023-04-02T10:57:36.797Z,6
2023-04-02T11:00:06.835Z,8
2023-04-02T11:02:36.722Z,4
2023-04-02T11:05:07.292Z,8
2023-04-02T11:07:37.683Z,8
2023-04-02T11:10:07.942Z,8
2023-04-02T11:12:41.476Z,4
2023-04-02T11:15:09.085Z,5
2023-04-02T11:17:39.463Z,9
2023-04-02T11:20:09.653Z,10
2023-04-02T11:22:41.167Z,12
2023-04-02T11:25:11.665Z,8
2023-04-02T11:27:41.737Z,8
2023-04-02T11:30:12.150Z,8
2023-04-02T11:32:42.904Z,4
2023-04-02T11:35:13.234Z,4
2023-04-02T11:37:43.202Z,4
2023-04-02T11:40:14.149Z,4
2023-04-02T11:42:44.105Z,4
2023-04-02T11:45:14.495Z,4
2023-04-02T11:47:45.122Z,4
2023-04-02T11:50:15.415Z,8
2023-04-02T11:52:45.742Z,8
2023-04-02T11:55:16.000Z,4
2023-04-02T11:57:47.181Z,8
2023-04-02T12:00:18.154Z,4
2023-04-02T12:02:48.428Z,4
2023-04-02T12:05:18.998Z,4
2023-04-02T12:07:49.073Z,4
2023-04-02T12:10:19.767Z,0
2023-04-02T12:12:49.918Z,4
2023-04-02T12:15:20.317Z,0
2023-04-02T12:17:50.880Z,0
2023-04-02T12:20:20.937Z,4
2023-04-02T12:22:51.309Z,4
2023-04-02T12:25:21.896Z,4
2023-04-02T12:27:52.479Z,4
2023-04-02T12:30:21.733Z,2
2023-04-02T12:32:52.054Z,3
2023-04-02T12:35:22.466Z,1
2023-04-02T12:37:52.600Z,4
2023-04-02T12:40:22.703Z,4
2023-04-02T12:42:53.438Z,4
2023-04-02T12:45:23.913Z,8
2023-04-02T12:47:55.000Z,4
2023-04-02T12:50:26.472Z,12
2023-04-02T12:52:56.471Z,4
2023-04-02T12:55:26.527Z,0
2023-04-02T12:57:56.785Z,4
2023-04-02T13:00:26.880Z,4
2023-04-02T13:02:57.062Z,7
2023-04-02T13:05:27.457Z,1
2023-04-02T13:07:57.803Z,4
2023-04-02T13:10:28.380Z,0
2023-04-02T13:12:58.591Z,4
2023-04-02T13:15:29.860Z,4
2023-04-02T13:18:00.764Z,10
2023-04-02T13:20:31.126Z,13
2023-04-02T13:23:02.749Z,8
2023-04-02T13:25:33.341Z,4
2023-04-02T13:28:02.358Z,8
2023-04-02T13:30:33.292Z,20
2023-04-02T13:33:04.567Z,4
2023-04-02T13:35:34.635Z,0
2023-04-02T13:38:03.525Z,0
2023-04-02T13:40:34.583Z,4
2023-04-02T13:43:04.869Z,4
2023-04-02T13:45:35.334Z,4
2023-04-02T13:48:05.856Z,24
2023-04-02T13:50:36.028Z,8
2023-04-02T13:53:09.791Z,8
2023-04-02T13:55:37.831Z,4
2023-04-02T13:58:12.326Z,18
2023-04-02T14:00:43.586Z,23
2023-04-02T14:03:13.661Z,20
2023-04-02T14:05:44.339Z,8
2023-04-02T14:08:14.663Z,20
2023-04-02T14:10:45.874Z,12
2023-04-02T14:13:15.997Z,8
2023-04-02T14:15:47.149Z,11
2023-04-02T14:18:17.434Z,4
2023-04-02T14:20:48.753Z,8
2023-04-02T14:23:18.612Z,8
2023-04-02T14:25:49.369Z,15
2023-04-02T14:28:20.082Z,8
2023-04-02T14:30:50.677Z,8
2023-04-02T14:33:21.117Z,4
2023-04-02T14:35:51.295Z,4
2023-04-02T14:38:21.398Z,8
2023-04-02T14:40:51.592Z,4
2023-04-02T14:43:21.862Z,8
2023-04-02T14:45:52.327Z,8
2023-04-02T14:48:22.768Z,5
2023-04-02T14:50:52.506Z,4
2023-04-02T14:53:21.466Z,8
2023-04-02T14:55:52.044Z,8
2023-04-02T14:58:23.717Z,8
2023-04-02T15:00:54.882Z,6
2023-04-02T15:03:24.178Z,4
2023-04-02T15:05:54.358Z,4
2023-04-02T15:08:24.588Z,4
2023-04-02T15:10:54.919Z,0
2023-04-02T15:13:25.206Z,4
2023-04-02T15:15:55.686Z,4
2023-04-02T15:18:26.067Z,4
2023-04-02T15:20:56.529Z,1
2023-04-02T15:23:27.015Z,1
2023-04-02T15:25:56.779Z,0
2023-04-02T15:28:27.272Z,4
2023-04-02T15:30:57.962Z,4
2023-04-02T15:33:28.601Z,4
2023-04-02T15:35:59.632Z,4
2023-04-02T15:38:29.697Z,4
2023-04-02T15:40:59.688Z,4
2023-04-02T15:43:30.012Z,4
2023-04-02T15:46:00.488Z,4
2023-04-02T15:48:29.338Z,4
2023-04-02T15:50:59.485Z,0
2023-04-02T15:53:30.220Z,0
2023-04-02T15:56:00.548Z,4
2023-04-02T15:58:31.556Z,8
2023-04-02T16:01:02.143Z,4
2023-04-02T16:03:30.936Z,12
2023-04-02T16:06:01.744Z,12
2023-04-02T16:08:31.831Z,4
2023-04-02T16:11:00.628Z,4
2023-04-02T16:13:30.971Z,4
2023-04-02T16:16:01.633Z,4
2023-04-02T16:18:31.715Z,4
2023-04-02T16:21:02.483Z,4
2023-04-02T16:23:32.631Z,4
2023-04-02T16:26:03.174Z,4
2023-04-02T16:28:33.752Z,5
2023-04-02T16:31:04.345Z,4
2023-04-02T16:33:33.629Z,4
2023-04-02T16:36:03.753Z,4
2023-04-02T16:38:32.415Z,4
2023-04-02T16:41:08.152Z,4
2023-04-02T16:43:32.504Z,8
2023-04-02T16:46:02.942Z,4
2023-04-02T16:48:33.168Z,4
2023-04-02T16:51:03.440Z,6
2023-04-02T16:53:33.558Z,4
2023-04-02T16:56:04.080Z,4
2023-04-02T16:58:34.341Z,4
2023-04-02T17:01:04.781Z,4
2023-04-02T17:03:35.073Z,4
2023-04-02T17:06:05.507Z,4
2023-04-02T17:08:35.717Z,4
2023-04-02T17:11:06.433Z,5
2023-04-02T17:13:36.618Z,8
2023-04-02T17:16:07.268Z,8
2023-04-02T17:18:37.507Z,5
2023-04-02T17:21:07.472Z,8
2023-04-02T17:23:43.255Z,8
2023-04-02T17:26:07.375Z,8
2023-04-02T17:28:37.456Z,12
2023-04-02T17:31:07.582Z,12
2023-04-02T17:33:37.708Z,12
2023-04-02T17:36:07.807Z,12
2023-04-02T17:38:38.272Z,11
2023-04-02T17:41:09.358Z,11
2023-04-02T17:43:39.496Z,8
2023-04-02T17:46:09.565Z,12
2023-04-02T17:48:39.484Z,12
2023-04-02T17:51:09.784Z,14
2023-04-02T17:53:40.154Z,10
2023-04-02T17:56:09.901Z,12
2023-04-02T17:58:40.270Z,9
2023-04-02T18:01:10.780Z,9
2023-04-02T18:03:40.973Z,7
2023-04-02T18:06:09.744Z,4
2023-04-02T18:08:38.487Z,5
2023-04-02T18:11:08.484Z,8
2023-04-02T18:13:38.747Z,8
2023-04-02T18:16:08.866Z,6
2023-04-02T18:18:43.234Z,23
2023-04-02T18:21:13.948Z,12
2023-04-02T18:23:44.278Z,12
2023-04-02T18:26:13.036Z,4
2023-04-02T18:28:43.291Z,12
2023-04-02T18:31:13.636Z,8
2023-04-02T18:33:43.659Z,20
2023-04-02T18:36:13.854Z,20
2023-04-02T18:38:43.926Z,23
2023-04-02T18:41:14.010Z,26
2023-04-02T18:43:44.000Z,28
2023-04-02T18:46:14.194Z,32
2023-04-02T18:48:45.197Z,32
2023-04-02T18:51:16.000Z,31
2023-04-02T18:53:46.786Z,32
2023-04-02T18:56:16.905Z,32
2023-04-02T18:58:46.928Z,36
2023-04-02T19:01:17.075Z,36
2023-04-02T19:03:47.960Z,35
2023-04-02T19:06:18.754Z,36
2023-04-02T19:08:49.425Z,33
2023-04-02T19:11:19.600Z,36
2023-04-02T19:13:48.608Z,33
2023-04-02T19:16:18.934Z,32
2023-04-02T19:18:49.501Z,32
2023-04-02T19:21:20.046Z,32
2023-04-02T19:23:50.273Z,36
2023-04-02T19:26:20.374Z,32
2023-04-02T19:28:50.757Z,40
2023-04-02T19:31:21.975Z,49
2023-04-02T19:33:52.987Z,56
2023-04-02T19:36:23.511Z,62
2023-04-02T19:38:53.783Z,56
2023-04-02T19:41:23.900Z,51
2023-04-02T19:43:54.303Z,38
2023-04-02T19:46:24.616Z,28
2023-04-02T19:48:54.621Z,28
2023-04-02T19:51:24.579Z,28
2023-04-02T19:53:55.303Z,24
2023-04-02T19:56:25.986Z,20
2023-04-02T19:58:56.840Z,24
2023-04-02T20:01:27.438Z,20
2023-04-02T20:03:55.976Z,20
2023-04-02T20:06:26.257Z,19
2023-04-02T20:08:56.267Z,20
2023-04-02T20:11:26.464Z,20
2023-04-02T20:13:55.354Z,20
2023-04-02T20:16:25.515Z,23
2023-04-02T20:18:55.699Z,24
2023-04-02T20:21:26.127Z,24
2023-04-02T20:23:56.783Z,24
2023-04-02T20:26:26.840Z,20
2023-04-02T20:28:57.251Z,20
2023-04-02T20:31:27.401Z,24
2023-04-02T20:33:57.578Z,24
2023-04-02T20:36:27.969Z,20
2023-04-02T20:38:58.061Z,20
2023-04-02T20:41:27.995Z,32
2023-04-02T20:43:56.220Z,36
2023-04-02T20:46:26.373Z,36
2023-04-02T20:48:56.696Z,24
2023-04-02T20:51:27.514Z,28
2023-04-02T20:53:58.069Z,32
2023-04-02T20:56:29.053Z,36
2023-04-02T20:58:59.002Z,34
2023-04-02T21:01:29.416Z,36
2023-04-02T21:03:59.777Z,36
2023-04-02T21:06:29.964Z,32
2023-04-02T21:09:00.817Z,32
2023-04-02T21:11:31.571Z,33
2023-04-02T21:14:00.225Z,36
2023-04-02T21:16:30.130Z,36
2023-04-02T21:19:00.142Z,32
2023-04-02T21:21:30.805Z,32
2023-04-02T21:24:00.838Z,33
2023-04-02T21:26:32.412Z,36
2023-04-02T21:29:01.632Z,36
2023-04-02T21:31:31.728Z,33
2023-04-02T21:34:01.551Z,35
2023-04-02T21:36:32.180Z,36
2023-04-02T21:39:02.635Z,36
2023-04-02T21:41:33.033Z,36
2023-04-02T21:44:03.269Z,32
2023-04-02T21:46:33.903Z,32
2023-04-02T21:49:05.686Z,28
2023-04-02T21:51:36.031Z,25
2023-04-02T21:54:06.298Z,24
2023-04-02T21:56:36.734Z,20
2023-04-02T21:59:08.559Z,16
2023-04-02T22:01:39.119Z,12
2023-04-02T22:04:09.786Z,16
2023-04-02T22:06:40.314Z,12
2023-04-02T22:09:10.946Z,12
2023-04-02T22:11:41.752Z,12
2023-04-02T22:14:12.027Z,12
2023-04-02T22:16:42.467Z,12
2023-04-02T22:19:14.247Z,12
2023-04-02T22:21:45.069Z,8
2023-04-02T22:24:15.677Z,12
2023-04-02T22:26:46.246Z,8
2023-04-02T22:29:16.666Z,9
2023-04-02T22:31:47.692Z,8
2023-04-02T22:34:17.985Z,8
2023-04-02T22:36:51.346Z,8
2023-04-02T22:39:21.915Z,16
2023-04-02T22:41:52.414Z,12
2023-04-02T22:44:23.020Z,12
2023-04-02T22:46:53.476Z,12
2023-04-02T22:49:24.100Z,12
2023-04-02T22:51:54.430Z,12
2023-04-02T22:54:25.107Z,12
2023-04-02T22:56:55.659Z,8
2023-04-02T22:59:24.665Z,8
2023-04-02T23:01:55.359Z,8
2023-04-02T23:04:25.495Z,12
2023-04-02T23:06:56.766Z,12
2023-04-02T23:09:27.169Z,9
2023-04-02T23:11:58.011Z,12
2023-04-02T23:14:28.478Z,12
2023-04-02T23:16:59.213Z,10
2023-04-02T23:19:28.566Z,8
2023-04-02T23:21:59.271Z,8
2023-04-02T23:24:28.495Z,4
2023-04-02T23:26:59.185Z,8
2023-04-02T23:29:29.278Z,8
2023-04-02T23:31:59.822Z,8
2023-04-02T23:34:30.177Z,8
2023-04-02T23:37:01.064Z,8
2023-04-02T23:39:31.241Z,8
2023-04-02T23:42:02.162Z,10
2023-04-02T23:44:32.343Z,8
2023-04-02T23:47:03.081Z,8
2023-04-02T23:49:32.292Z,8
2023-04-02T23:52:02.522Z,8
2023-04-02T23:54:33.271Z,8
2023-04-02T23:57:03.920Z,12
2023-04-02T23:59:34.195Z,12
